createdAt,value
2023-03-19T00:01:05.705Z,29.73
2023-03-19T00:03:35.287Z,24.63
2023-03-19T00:06:04.106Z,23.73
2023-03-19T00:08:32.076Z,25.55
2023-03-19T00:11:07.229Z,24.73
2023-03-19T00:13:35.974Z,26.17
2023-03-19T00:16:05.018Z,26.87
2023-03-19T00:18:33.522Z,29.23
2023-03-19T00:21:01.698Z,28.52
2023-03-19T00:23:29.901Z,24.08
2023-03-19T00:25:57.771Z,26.35
2023-03-19T00:28:26.666Z,23.25
2023-03-19T00:30:55.989Z,27.62
2023-03-19T00:33:24.224Z,24.92
2023-03-19T00:35:52.368Z,23.62
2023-03-19T00:38:20.765Z,21.50
2023-03-19T00:40:48.663Z,22.65
2023-03-19T00:43:16.838Z,24.77
2023-03-19T00:45:45.163Z,22.48
2023-03-19T00:48:14.000Z,26.10
2023-03-19T00:50:41.974Z,20.98
2023-03-19T00:53:10.440Z,24.02
2023-03-19T00:55:38.726Z,23.40
2023-03-19T00:58:06.947Z,24.60
2023-03-19T01:00:37.583Z,22.42
2023-03-19T01:03:06.716Z,23.35
2023-03-19T01:08:04.818Z,23.05
2023-03-19T01:10:35.239Z,23.65
2023-03-19T01:13:04.984Z,27.77
2023-03-19T01:15:39.994Z,21.20
2023-03-19T01:18:09.130Z,21.95
2023-03-19T01:20:39.372Z,21.77
2023-03-19T01:23:08.810Z,23.08
2023-03-19T01:25:39.703Z,24.25
2023-03-19T01:28:08.001Z,27.17
2023-03-19T01:30:37.343Z,23.33
2023-03-19T01:33:08.227Z,23.27
2023-03-19T01:35:37.122Z,22.73
2023-03-19T01:38:05.945Z,23.55
2023-03-19T01:40:34.522Z,24.20
2023-03-19T01:43:19.651Z,21.12
2023-03-19T01:45:51.439Z,26.10
2023-03-19T01:48:27.692Z,21.25
2023-03-19T01:50:58.253Z,19.77
2023-03-19T01:53:31.947Z,22.10
2023-03-19T01:56:07.209Z,23.17
2023-03-19T01:58:36.960Z,24.30
2023-03-19T02:01:06.215Z,23.38
2023-03-19T02:03:36.490Z,26.87
2023-03-19T02:06:05.275Z,20.42
2023-03-19T02:08:35.939Z,19.95
2023-03-19T02:11:05.698Z,22.48
2023-03-19T02:13:35.197Z,24.85
2023-03-19T02:16:04.417Z,21.60
2023-03-19T02:18:33.442Z,19.15
2023-03-19T02:21:17.666Z,20.62
2023-03-19T02:23:50.003Z,21.58
2023-03-19T02:26:21.847Z,21.12
2023-03-19T02:28:52.325Z,19.70
2023-03-19T02:31:22.646Z,25.77
2023-03-19T02:34:02.421Z,21.87
2023-03-19T02:36:39.167Z,21.37
2023-03-19T02:39:13.419Z,20.62
2023-03-19T02:41:43.061Z,21.02
2023-03-19T02:44:12.905Z,18.90
2023-03-19T02:46:41.670Z,23.48
2023-03-19T02:49:10.093Z,16.87
2023-03-19T02:51:38.976Z,20.27
2023-03-19T02:54:07.837Z,20.88
2023-03-19T02:56:35.988Z,18.85
2023-03-19T02:59:04.624Z,20.83
2023-03-19T03:01:32.846Z,20.23
2023-03-19T03:04:00.802Z,21.80
2023-03-19T03:06:28.827Z,21.12
2023-03-19T03:08:57.566Z,21.95
2023-03-19T03:11:26.371Z,18.58
2023-03-19T03:13:54.269Z,17.40
2023-03-19T03:16:22.935Z,19.33
2023-03-19T03:18:51.446Z,19.23
2023-03-19T03:21:21.625Z,18.55
2023-03-19T03:23:50.239Z,20.35
2023-03-19T03:26:18.355Z,19.17
2023-03-19T03:28:46.708Z,22.13
2023-03-19T03:31:15.062Z,19.02
2023-03-19T03:33:43.864Z,21.15
2023-03-19T03:36:12.468Z,19.42
2023-03-19T03:38:41.697Z,18.37
2023-03-19T03:41:09.695Z,18.50
2023-03-19T03:43:37.591Z,21.27
2023-03-19T03:46:06.150Z,21.48
2023-03-19T03:48:35.273Z,19.87
2023-03-19T03:51:04.578Z,17.73
2023-03-19T03:53:33.614Z,18.33
2023-03-19T03:56:02.530Z,19.65
2023-03-19T03:58:30.917Z,18.67
2023-03-19T04:00:59.587Z,21.85
2023-03-19T04:03:28.228Z,20.40
2023-03-19T04:05:56.809Z,19.08
2023-03-19T04:08:24.863Z,17.37
2023-03-19T04:10:52.981Z,20.83
2023-03-19T04:13:21.651Z,20.60
2023-03-19T04:15:49.744Z,23.25
2023-03-19T04:18:18.076Z,17.87
2023-03-19T04:20:46.517Z,17.25
2023-03-19T04:23:14.406Z,18.23
2023-03-19T04:25:42.865Z,20.83
2023-03-19T04:28:10.853Z,19.50
2023-03-19T04:30:39.576Z,16.70
2023-03-19T04:33:08.182Z,19.35
2023-03-19T04:35:36.488Z,18.23
2023-03-19T04:38:05.590Z,17.50
2023-03-19T04:40:34.598Z,18.87
2023-03-19T04:43:02.975Z,20.25
2023-03-19T04:45:34.428Z,18.65
2023-03-19T04:48:02.583Z,16.92
2023-03-19T04:50:30.878Z,19.52
2023-03-19T04:52:59.969Z,17.85
2023-03-19T04:55:28.250Z,18.15
2023-03-19T04:57:56.821Z,19.55
2023-03-19T05:00:28.635Z,20.30
2023-03-19T05:02:57.905Z,19.60
2023-03-19T05:05:26.466Z,20.73
2023-03-19T05:07:54.826Z,18.70
2023-03-19T05:10:22.827Z,23.42
2023-03-19T05:12:51.294Z,17.73
2023-03-19T05:15:19.480Z,20.12
2023-03-19T05:17:50.044Z,20.12
2023-03-19T05:20:19.672Z,17.37
2023-03-19T05:22:53.648Z,19.83
2023-03-19T05:25:22.402Z,21.02
2023-03-19T05:27:50.396Z,17.95
2023-03-19T05:30:19.234Z,20.90
2023-03-19T05:32:49.275Z,19.50
2023-03-19T05:35:19.639Z,19.52
2023-03-19T05:37:48.283Z,18.75
2023-03-19T05:40:16.748Z,17.90
2023-03-19T05:42:44.896Z,20.08
2023-03-19T05:45:14.227Z,21.23
2023-03-19T05:47:43.192Z,17.92
2023-03-19T05:50:14.132Z,22.27
2023-03-19T05:52:44.473Z,23.87
2023-03-19T05:55:12.622Z,19.83
2023-03-19T05:57:41.314Z,19.90
2023-03-19T06:00:11.356Z,21.65
2023-03-19T06:05:12.236Z,18.52
2023-03-19T06:07:40.460Z,22.23
2023-03-19T06:10:09.539Z,19.70
2023-03-19T06:12:38.114Z,21.15
2023-03-19T06:15:07.654Z,24.85
2023-03-19T06:17:39.277Z,22.15
2023-03-19T06:20:07.966Z,27.60
2023-03-19T06:22:36.328Z,21.27
2023-03-19T06:25:06.804Z,20.77
2023-03-19T06:27:35.996Z,21.20
2023-03-19T06:30:09.178Z,23.35
2023-03-19T06:32:38.546Z,21.95
2023-03-19T06:35:08.823Z,22.00
2023-03-19T06:37:37.874Z,23.12
2023-03-19T06:40:06.501Z,21.42
2023-03-19T06:42:35.079Z,22.62
2023-03-19T06:45:03.662Z,22.70
2023-03-19T06:47:31.668Z,22.23
2023-03-19T06:50:01.090Z,19.42
2023-03-19T06:52:29.075Z,22.40
2023-03-19T06:54:56.945Z,20.60
2023-03-19T06:57:25.153Z,17.62
2023-03-19T06:59:53.552Z,20.52
2023-03-19T07:02:22.341Z,21.55
2023-03-19T07:04:50.995Z,21.27
2023-03-19T07:07:19.397Z,23.90
2023-03-19T07:09:47.238Z,20.55
2023-03-19T07:12:15.921Z,19.65
2023-03-19T07:14:43.999Z,20.10
2023-03-19T07:17:11.771Z,19.17
2023-03-19T07:19:39.944Z,18.73
2023-03-19T07:22:07.815Z,19.20
2023-03-19T07:24:36.468Z,19.05
2023-03-19T07:27:05.044Z,22.40
2023-03-19T07:29:33.087Z,18.17
2023-03-19T07:32:01.212Z,19.37
2023-03-19T07:34:31.711Z,19.73
2023-03-19T07:36:59.545Z,19.50
2023-03-19T07:39:27.792Z,19.58
2023-03-19T07:41:56.147Z,16.55
2023-03-19T07:44:24.336Z,16.90
2023-03-19T07:46:52.365Z,14.63
2023-03-19T07:49:20.588Z,18.27
2023-03-19T07:51:48.996Z,14.02
2023-03-19T07:54:17.091Z,17.87
2023-03-19T07:56:45.476Z,15.68
2023-03-19T07:59:13.329Z,16.83
2023-03-19T08:01:41.507Z,19.62
2023-03-19T08:04:09.907Z,14.65
2023-03-19T08:06:38.687Z,16.02
2023-03-19T08:09:07.072Z,13.70
2023-03-19T08:11:35.912Z,15.00
2023-03-19T08:14:04.158Z,13.52
2023-03-19T08:16:32.298Z,15.35
2023-03-19T08:19:00.648Z,15.10
2023-03-19T08:21:29.905Z,12.85
2023-03-19T08:23:57.888Z,14.38
2023-03-19T08:26:26.440Z,15.30
2023-03-19T08:28:55.355Z,14.40
2023-03-19T08:31:23.409Z,14.75
2023-03-19T08:33:51.819Z,15.48
2023-03-19T08:36:19.776Z,14.35
2023-03-19T08:38:47.951Z,13.73
2023-03-19T08:41:16.579Z,13.52
2023-03-19T08:43:44.703Z,12.48
2023-03-19T08:46:16.568Z,12.57
2023-03-19T08:48:45.109Z,13.07
2023-03-19T08:51:13.929Z,13.32
2023-03-19T08:53:41.814Z,12.80
2023-03-19T09:11:37.091Z,61.90
2023-03-19T09:14:05.911Z,83.40
2023-03-19T09:16:36.653Z,73.82
2023-03-19T09:19:06.365Z,67.03
2023-03-19T09:21:34.571Z,58.15
2023-03-19T09:24:02.671Z,62.22
2023-03-19T09:26:31.296Z,53.08
2023-03-19T09:28:59.841Z,59.25
2023-03-19T09:31:29.661Z,59.53
2023-03-19T09:34:01.841Z,47.42
2023-03-19T09:36:29.710Z,44.95
2023-03-19T09:38:57.596Z,39.42
2023-03-19T09:41:31.574Z,38.70
2023-03-19T09:44:03.290Z,38.42
2023-03-19T09:46:51.571Z,39.05
2023-03-19T09:49:32.843Z,32.47
2023-03-19T09:52:28.542Z,16.37
2023-03-19T09:54:59.171Z,8.90
2023-03-19T09:57:29.935Z,7.87
2023-03-19T09:59:57.748Z,6.12
2023-03-19T10:02:42.536Z,5.70
2023-03-19T10:05:25.926Z,6.10
2023-03-19T10:08:11.666Z,5.25
2023-03-19T10:11:16.528Z,5.50
2023-03-19T10:14:07.490Z,4.68
2023-03-19T10:16:40.211Z,5.40
2023-03-19T10:19:12.976Z,6.00
2023-03-19T10:21:58.489Z,6.45
2023-03-19T10:24:40.554Z,8.57
2023-03-19T10:27:19.564Z,7.20
2023-03-19T10:29:48.288Z,5.12
2023-03-19T10:32:34.901Z,6.07
2023-03-19T10:35:13.141Z,4.40
2023-03-19T10:37:41.438Z,3.90
2023-03-19T10:40:22.144Z,4.53
2023-03-19T10:43:13.665Z,6.22
2023-03-19T10:45:41.996Z,4.45
2023-03-19T10:48:15.609Z,5.28
2023-03-19T10:50:51.254Z,6.00
2023-03-19T10:53:19.326Z,4.87
2023-03-19T10:56:07.729Z,6.65
2023-03-19T10:58:37.588Z,9.48
2023-03-19T11:01:12.188Z,7.40
2023-03-19T11:04:00.694Z,4.47
2023-03-19T11:06:33.482Z,4.62
2023-03-19T11:09:03.704Z,5.25
2023-03-19T11:11:36.842Z,4.67
2023-03-19T11:14:17.313Z,3.92
2023-03-19T11:17:02.802Z,5.10
2023-03-19T11:19:39.189Z,4.78
2023-03-19T11:22:07.679Z,7.62
2023-03-19T11:24:40.894Z,5.10
2023-03-19T11:27:11.922Z,3.80
2023-03-19T11:29:43.776Z,4.62
2023-03-19T11:32:57.504Z,5.97
2023-03-19T11:35:31.522Z,4.05
2023-03-19T11:38:02.557Z,4.82
2023-03-19T11:43:42.925Z,4.68
2023-03-19T11:46:14.331Z,5.45
2023-03-19T11:49:15.825Z,5.00
2023-03-19T11:51:51.762Z,5.50
2023-03-19T11:54:25.536Z,3.92
2023-03-19T11:57:04.644Z,4.55
2023-03-19T11:59:56.495Z,4.68
2023-03-19T12:02:51.763Z,4.00
2023-03-19T12:05:36.815Z,5.37
2023-03-19T12:08:13.561Z,4.20
2023-03-19T12:10:54.226Z,4.62
2023-03-19T12:13:51.431Z,6.05
2023-03-19T12:16:57.342Z,5.03
2023-03-19T12:19:50.919Z,5.45
2023-03-19T12:22:31.663Z,3.47
2023-03-19T12:25:37.145Z,3.27
2023-03-19T12:28:12.580Z,4.45
2023-03-19T12:30:45.447Z,3.55
2023-03-19T12:33:38.466Z,6.28
2023-03-19T12:36:12.382Z,4.37
2023-03-19T12:38:48.451Z,5.50
2023-03-19T12:41:24.405Z,3.47
2023-03-19T12:44:06.435Z,5.15
2023-03-19T12:46:38.975Z,5.68
2023-03-19T12:49:25.850Z,4.37
2023-03-19T12:51:59.921Z,4.10
2023-03-19T12:54:34.793Z,3.90
2023-03-19T12:57:17.600Z,3.50
2023-03-19T12:59:55.767Z,6.55
2023-03-19T13:02:51.002Z,3.90
2023-03-19T13:05:28.868Z,3.70
2023-03-19T13:08:13.593Z,4.57
2023-03-19T13:10:41.723Z,4.70
2023-03-19T13:13:38.752Z,3.83
2023-03-19T13:16:25.730Z,4.00
2023-03-19T13:19:05.739Z,3.92
2023-03-19T13:21:37.801Z,5.25
2023-03-19T13:24:24.617Z,5.15
2023-03-19T13:26:55.136Z,4.18
2023-03-19T13:29:28.113Z,5.20
2023-03-19T13:32:06.697Z,5.18
2023-03-19T13:34:37.174Z,8.00
2023-03-19T13:37:26.901Z,5.00
2023-03-19T13:39:55.855Z,4.85
2023-03-19T13:42:43.863Z,3.95
2023-03-19T13:45:34.698Z,5.50
2023-03-19T13:48:33.390Z,6.07
2023-03-19T13:51:03.732Z,4.95
2023-03-19T13:53:36.975Z,4.12
2023-03-19T13:56:22.496Z,3.92
2023-03-19T13:59:15.236Z,4.10
2023-03-19T14:01:45.055Z,4.93
2023-03-19T14:04:36.886Z,4.50
2023-03-19T14:07:42.722Z,4.78
2023-03-19T14:10:20.529Z,5.45
2023-03-19T14:12:50.064Z,5.87
2023-03-19T14:15:28.192Z,3.40
2023-03-19T14:17:58.900Z,5.65
2023-03-19T14:20:39.787Z,5.65
2023-03-19T14:23:08.888Z,4.93
2023-03-19T14:25:58.539Z,4.45
2023-03-19T14:28:45.663Z,5.18
2023-03-19T14:31:26.509Z,7.22
2023-03-19T14:34:19.570Z,3.85
2023-03-19T14:37:18.620Z,3.42
2023-03-19T14:39:52.941Z,4.32
2023-03-19T14:42:43.472Z,4.47
2023-03-19T14:45:36.765Z,5.32
2023-03-19T14:48:39.307Z,7.20
2023-03-19T14:51:32.015Z,4.80
2023-03-19T14:54:12.700Z,5.05
2023-03-19T14:56:40.810Z,3.30
2023-03-19T14:59:13.825Z,3.87
2023-03-19T15:01:48.263Z,3.08
2023-03-19T15:04:18.410Z,3.33
2023-03-19T15:06:59.334Z,5.70
2023-03-19T15:09:32.448Z,3.40
2023-03-19T15:12:22.473Z,3.83
2023-03-19T15:15:12.704Z,3.67
2023-03-19T15:17:41.686Z,4.35
2023-03-19T15:20:18.898Z,5.47
2023-03-19T15:22:59.785Z,5.53
2023-03-19T15:25:28.585Z,5.00
2023-03-19T15:28:09.068Z,5.90
2023-03-19T15:30:52.273Z,4.65
2023-03-19T15:33:39.847Z,3.50
2023-03-19T15:36:24.842Z,3.60
2023-03-19T15:39:21.349Z,4.22
2023-03-19T15:41:52.081Z,5.47
2023-03-19T15:44:30.659Z,6.82
2023-03-19T15:47:03.304Z,5.18
2023-03-19T15:49:52.755Z,6.32
2023-03-19T15:52:21.846Z,5.07
2023-03-19T15:54:50.037Z,5.05
2023-03-19T15:57:18.402Z,5.55
2023-03-19T15:59:47.381Z,4.55
2023-03-19T16:02:41.216Z,5.68
2023-03-19T16:05:31.085Z,6.50
2023-03-19T16:08:03.236Z,4.05
2023-03-19T16:10:40.587Z,4.00
2023-03-19T16:13:39.594Z,5.40
2023-03-19T16:16:18.643Z,5.75
2023-03-19T16:18:53.234Z,9.68
2023-03-19T16:21:29.684Z,6.65
2023-03-19T16:24:02.094Z,10.07
2023-03-19T16:26:33.543Z,9.50
2023-03-19T16:29:24.441Z,11.45
2023-03-19T16:31:59.693Z,10.13
2023-03-19T16:34:48.475Z,12.65
2023-03-19T16:37:33.176Z,8.18
2023-03-19T16:40:13.104Z,11.18
2023-03-19T16:42:44.160Z,12.73
2023-03-19T16:45:15.617Z,12.02
2023-03-19T16:47:46.756Z,13.85
2023-03-19T16:50:35.305Z,11.70
2023-03-19T16:53:11.161Z,10.88
2023-03-19T16:55:39.968Z,16.50
2023-03-19T16:58:14.264Z,18.35
2023-03-19T17:00:44.389Z,19.55
2023-03-19T17:03:16.107Z,13.43
2023-03-19T17:05:45.969Z,24.87
2023-03-19T17:08:15.003Z,19.90
2023-03-19T17:10:49.477Z,25.37
2023-03-19T17:13:28.692Z,21.40
2023-03-19T17:16:04.855Z,28.77
2023-03-19T17:18:40.529Z,29.98
2023-03-19T17:21:21.573Z,32.40
2023-03-19T17:23:50.739Z,27.40
2023-03-19T17:26:25.959Z,26.30
2023-03-19T17:28:56.276Z,30.30
2023-03-19T17:31:30.583Z,25.48
2023-03-19T17:34:02.678Z,35.20
2023-03-19T17:36:31.951Z,27.75
2023-03-19T17:39:01.089Z,26.25
2023-03-19T17:41:32.912Z,31.52
2023-03-19T17:44:03.739Z,31.17
2023-03-19T17:46:39.839Z,24.12
2023-03-19T17:49:20.417Z,23.27
2023-03-19T17:51:49.522Z,26.52
2023-03-19T17:54:18.329Z,25.08
2023-03-19T17:56:46.850Z,24.23
2023-03-19T17:59:15.445Z,22.00
2023-03-19T18:01:47.311Z,22.20
2023-03-19T18:04:21.067Z,22.62
2023-03-19T18:06:54.167Z,19.85
2023-03-19T18:09:27.027Z,23.10
2023-03-19T18:11:55.647Z,24.10
2023-03-19T18:14:24.357Z,24.65
2023-03-19T18:16:52.694Z,22.08
2023-03-19T18:19:30.365Z,22.83
2023-03-19T18:21:59.312Z,24.48
2023-03-19T18:24:27.897Z,22.77
2023-03-19T18:26:55.852Z,21.45
2023-03-19T18:29:24.417Z,24.75
2023-03-19T18:31:53.218Z,21.62
2023-03-19T18:34:22.076Z,24.40
2023-03-19T18:36:50.337Z,22.48
2023-03-19T18:39:18.576Z,24.63
2023-03-19T18:41:47.434Z,28.85
2023-03-19T18:44:16.761Z,21.35
2023-03-19T18:46:45.401Z,20.67
2023-03-19T18:49:23.813Z,22.92
2023-03-19T18:52:08.985Z,27.77
2023-03-19T18:54:37.172Z,20.83
2023-03-19T18:57:06.519Z,21.87
2023-03-19T18:59:34.766Z,26.40
2023-03-19T19:02:30.256Z,24.75
2023-03-19T19:04:58.812Z,25.77
2023-03-19T19:07:27.086Z,25.50
2023-03-19T19:09:55.645Z,28.10
2023-03-19T19:12:26.623Z,24.77
2023-03-19T19:14:55.749Z,24.67
2023-03-19T19:17:24.755Z,28.60
2023-03-19T19:19:53.593Z,22.30
2023-03-19T19:22:21.895Z,23.62
2023-03-19T19:24:50.512Z,26.42
2023-03-19T19:27:21.745Z,27.42
2023-03-19T19:29:50.795Z,26.87
2023-03-19T19:32:26.661Z,25.20
2023-03-19T19:34:56.052Z,23.08
2023-03-19T19:37:25.787Z,23.80
2023-03-19T19:39:54.082Z,24.80
2023-03-19T19:42:23.528Z,27.85
2023-03-19T19:44:55.039Z,26.27
2023-03-19T19:47:23.273Z,25.83
2023-03-19T19:49:51.923Z,28.20
2023-03-19T19:52:20.912Z,25.17
2023-03-19T19:54:51.981Z,25.95
2023-03-19T19:57:24.888Z,26.33
2023-03-19T19:59:54.463Z,26.90
2023-03-19T20:02:31.585Z,23.23
2023-03-19T20:05:00.115Z,26.65
2023-03-19T20:07:28.277Z,26.08
2023-03-19T20:09:56.705Z,26.85
2023-03-19T20:12:30.834Z,26.08
2023-03-19T20:15:02.039Z,25.30
2023-03-19T20:17:30.865Z,28.42
2023-03-19T20:19:59.356Z,28.33
2023-03-19T20:22:27.566Z,29.25
2023-03-19T20:24:56.071Z,28.17
2023-03-19T20:27:32.419Z,25.67
2023-03-19T20:30:01.011Z,28.50
2023-03-19T20:32:33.177Z,25.20
2023-03-19T20:35:02.741Z,24.87
2023-03-19T20:37:31.298Z,30.30
2023-03-19T20:39:59.180Z,26.83
2023-03-19T20:42:30.399Z,25.77
2023-03-19T20:44:59.819Z,27.45
2023-03-19T20:47:29.194Z,28.17
2023-03-19T20:49:57.248Z,28.92
2023-03-19T20:52:26.040Z,30.67
2023-03-19T20:54:55.513Z,28.67
2023-03-19T20:57:29.318Z,29.45
2023-03-19T21:00:10.662Z,28.83
2023-03-19T21:02:39.511Z,30.98
2023-03-19T21:05:12.938Z,30.52
2023-03-19T21:07:43.231Z,33.72
2023-03-19T21:10:37.639Z,24.92
2023-03-19T21:13:06.618Z,24.17
2023-03-19T21:15:35.551Z,33.85
2023-03-19T21:18:04.045Z,27.15
2023-03-19T21:20:33.467Z,26.92
2023-03-19T21:23:04.236Z,27.90
2023-03-19T21:25:33.279Z,26.80
2023-03-19T21:28:06.375Z,27.90
2023-03-19T21:30:43.587Z,28.77
2023-03-19T21:33:25.716Z,28.23
2023-03-19T21:35:54.873Z,28.83
2023-03-19T21:38:23.997Z,28.08
2023-03-19T21:40:56.254Z,28.55
2023-03-19T21:43:35.889Z,28.58
2023-03-19T21:46:17.388Z,28.75
2023-03-19T21:48:51.883Z,25.27
2023-03-19T21:51:19.892Z,29.83
2023-03-19T21:53:48.104Z,25.85
2023-03-19T21:56:23.400Z,26.75
2023-03-19T21:58:52.936Z,26.15
2023-03-19T22:01:24.615Z,31.85
2023-03-19T22:03:55.533Z,28.27
2023-03-19T22:06:24.373Z,27.33
2023-03-19T22:08:55.739Z,26.80
2023-03-19T22:11:29.600Z,25.12
2023-03-19T22:14:07.711Z,30.00
2023-03-19T22:16:35.945Z,30.92
2023-03-19T22:19:04.524Z,30.42
2023-03-19T22:21:34.408Z,26.08
2023-03-19T22:24:02.496Z,24.83
2023-03-19T22:26:39.928Z,27.50
2023-03-19T22:29:22.839Z,28.17
2023-03-19T22:31:55.827Z,30.50
2023-03-19T22:34:25.899Z,24.73
2023-03-19T22:36:54.223Z,28.77
2023-03-19T22:39:22.192Z,27.05
2023-03-19T22:41:51.008Z,28.75
2023-03-19T22:44:31.030Z,27.85
2023-03-19T22:47:01.097Z,25.40
2023-03-19T22:49:30.054Z,24.58
2023-03-19T22:51:58.562Z,24.80
2023-03-19T22:54:26.767Z,27.05
2023-03-19T22:56:54.985Z,27.98
2023-03-19T22:59:23.157Z,23.95
2023-03-19T23:01:51.084Z,25.08
2023-03-19T23:04:30.258Z,26.08
2023-03-19T23:07:00.518Z,26.80
2023-03-19T23:09:32.300Z,23.75
2023-03-19T23:12:02.365Z,24.45
2023-03-19T23:14:31.574Z,24.37
2023-03-19T23:17:07.444Z,26.62
2023-03-19T23:19:37.475Z,25.23
2023-03-19T23:22:07.285Z,28.55
2023-03-19T23:24:35.643Z,29.77
2023-03-19T23:27:04.340Z,23.02
2023-03-19T23:29:36.913Z,25.02
2023-03-19T23:32:05.990Z,21.80
2023-03-19T23:34:42.311Z,26.17
2023-03-19T23:37:11.033Z,26.20
2023-03-19T23:39:42.489Z,23.90
2023-03-19T23:42:27.822Z,25.10
2023-03-19T23:44:59.520Z,24.87
2023-03-19T23:47:29.697Z,23.08
2023-03-19T23:49:57.928Z,26.40
2023-03-19T23:52:25.934Z,25.08
2023-03-19T23:54:54.103Z,21.92
2023-03-19T23:57:24.154Z,24.58
2023-03-19T23:59:52.443Z,25.05
